Time;durP1;ratioP1;P1;durP2;ratioP2;P2;SDS_P1;SDS_P2;PMS_P1;PMS_P2;Temp;Humidity;BMP_temperature;BMP_pressure;BME280_temperature;BME280_humidity;BME280_pressure;Samples;Min_cycle;Max_cycle;Signal;HPM_P1;HPM_P2
2022/03/30 00:02:11;;;;;;;25.37;15.60;;;14.20;99.60;;;;;;5062297;28;20203;-72
2022/03/30 00:04:38;;;;;;;22.93;14.30;;;14.20;99.60;;;;;;5067062;28;20199;-72
2022/03/30 00:07:04;;;;;;;23.53;13.40;;;14.20;99.90;;;;;;5066853;28;20319;-72
2022/03/30 00:09:30;;;;;;;22.07;13.53;;;14.30;99.80;;;;;;5067107;28;20656;-72
2022/03/30 00:11:56;;;;;;;22.07;14.47;;;14.30;99.90;;;;;;5050384;28;20193;-72
2022/03/30 00:14:22;;;;;;;24.10;14.17;;;14.30;99.90;;;;;;5066251;28;20187;-73
2022/03/30 00:16:48;;;;;;;24.87;13.80;;;14.20;99.90;;;;;;5049530;28;20435;-72
2022/03/30 00:19:13;;;;;;;22.87;14.50;;;14.20;99.70;;;;;;5047770;28;20197;-72
2022/03/30 00:21:39;;;;;;;23.03;14.13;;;14.20;99.90;;;;;;5069228;28;20179;-72
2022/03/30 00:24:04;;;;;;;22.73;14.20;;;14.20;99.90;;;;;;5058834;28;20631;-72
2022/03/30 00:26:30;;;;;;;18.63;13.93;;;14.20;99.90;;;;;;5072976;28;20183;-73
2022/03/30 00:28:56;;;;;;;26.23;14.30;;;14.20;99.90;;;;;;5073214;28;20260;-72
2022/03/30 00:31:21;;;;;;;22.23;14.33;;;14.10;99.90;;;;;;5062974;28;20200;-73
2022/03/30 00:33:48;;;;;;;23.47;13.80;;;14.00;99.90;;;;;;5050520;28;20177;-73
2022/03/30 00:36:13;;;;;;;22.17;13.73;;;14.00;99.90;;;;;;5067463;28;20169;-72
2022/03/30 00:38:39;;;;;;;20.00;14.37;;;14.00;99.90;;;;;;5067358;28;20453;-72
2022/03/30 00:41:04;;;;;;;25.33;14.83;;;13.90;99.90;;;;;;5054865;28;20535;-72
2022/03/30 00:43:30;;;;;;;22.57;14.53;;;13.70;99.90;;;;;;5047465;28;20248;-72
2022/03/30 00:45:55;;;;;;;26.63;14.77;;;13.90;99.90;;;;;;5054474;28;20252;-72
2022/03/30 00:48:21;;;;;;;24.97;14.77;;;13.80;99.90;;;;;;5057444;28;20188;-72
2022/03/30 00:50:47;;;;;;;23.47;15.07;;;13.70;99.90;;;;;;5063273;28;20224;-72
2022/03/30 00:53:12;;;;;;;19.47;14.03;;;13.70;99.90;;;;;;5070883;28;20627;-72
2022/03/30 00:55:38;;;;;;;21.53;14.23;;;13.70;99.90;;;;;;5068565;28;20176;-73
2022/03/30 00:58:06;;;;;;;31.00;13.93;;;13.70;99.90;;;;;;5070460;28;20195;-71
2022/03/30 01:00:31;;;;;;;30.50;14.30;;;13.70;99.90;;;;;;5054616;28;20223;-72
2022/03/30 01:02:57;;;;;;;23.73;14.17;;;13.80;99.90;;;;;;5069786;28;20403;-72
2022/03/30 01:05:23;;;;;;;20.17;13.60;;;13.80;99.90;;;;;;5051837;28;20174;-72
2022/03/30 01:07:48;;;;;;;22.60;14.97;;;13.70;99.90;;;;;;5051436;28;20268;-72
2022/03/30 01:10:17;;;;;;;21.90;13.80;;;13.70;99.90;;;;;;5065433;28;20197;-72
2022/03/30 01:12:43;;;;;;;20.57;14.07;;;13.70;99.90;;;;;;5053749;28;20337;-72
2022/03/30 01:15:10;;;;;;;22.07;14.10;;;13.70;99.90;;;;;;5053294;28;20920;-72
2022/03/30 01:17:39;;;;;;;21.97;14.03;;;13.70;99.90;;;;;;5062069;28;20523;-72
2022/03/30 01:20:06;;;;;;;25.73;15.47;;;13.70;99.90;;;;;;5052806;28;20833;-72
2022/03/30 01:22:33;;;;;;;26.53;15.23;;;13.50;99.90;;;;;;5066178;28;20924;-73
2022/03/30 01:24:59;;;;;;;29.70;15.93;;;13.50;99.90;;;;;;5069483;28;20406;-72
2022/03/30 01:27:25;;;;;;;30.47;17.23;;;13.50;99.90;;;;;;5065204;28;20415;-72
2022/03/30 01:32:36;;;;;;;24.90;16.60;;;13.60;99.90;;;;;;5068877;28;20187;-72
2022/03/30 01:35:04;;;;;;;29.83;17.30;;;13.60;99.90;;;;;;5068665;28;20497;-74
2022/03/30 01:37:31;;;;;;;27.30;16.93;;;13.60;99.90;;;;;;5056914;28;20446;-72
2022/03/30 01:39:59;;;;;;;29.27;18.13;;;13.60;99.90;;;;;;5069059;28;20466;-72
2022/03/30 01:42:25;;;;;;;27.53;17.50;;;13.60;99.90;;;;;;5050256;28;20462;-72
2022/03/30 01:44:52;;;;;;;31.53;19.47;;;13.50;99.90;;;;;;5068633;28;20421;-72
2022/03/30 01:47:18;;;;;;;28.13;17.67;;;13.50;99.90;;;;;;5063685;28;20419;-72
2022/03/30 01:49:44;;;;;;;29.87;16.93;;;13.50;99.90;;;;;;5051410;28;20804;-72
2022/03/30 01:52:10;;;;;;;27.37;17.37;;;13.50;99.90;;;;;;5063946;28;20458;-72
2022/03/30 01:54:39;;;;;;;27.57;17.80;;;13.40;99.90;;;;;;5068050;28;20531;-72
2022/03/30 01:57:06;;;;;;;37.73;19.00;;;13.40;99.90;;;;;;5064641;28;20168;-72
2022/03/30 01:59:32;;;;;;;33.73;18.80;;;13.40;99.90;;;;;;5065910;28;20468;-72
2022/03/30 02:01:58;;;;;;;35.00;19.30;;;13.40;99.90;;;;;;5069370;28;20407;-72
2022/03/30 02:04:24;;;;;;;32.07;18.50;;;13.40;99.90;;;;;;5065580;28;20602;-72
2022/03/30 02:06:50;;;;;;;32.57;18.33;;;13.40;99.90;;;;;;5069066;28;20164;-72
2022/03/30 02:09:16;;;;;;;30.57;18.20;;;13.50;99.90;;;;;;5062565;28;20230;-72
2022/03/30 02:11:42;;;;;;;29.63;17.50;;;13.50;99.90;;;;;;5069231;28;20845;-72
2022/03/30 02:14:08;;;;;;;30.67;18.83;;;13.50;99.90;;;;;;5056172;28;20532;-72
2022/03/30 02:16:33;;;;;;;26.87;16.43;;;13.50;99.90;;;;;;5065302;28;20195;-72
2022/03/30 02:18:59;;;;;;;25.30;16.10;;;13.50;99.90;;;;;;5060411;28;20216;-72
2022/03/30 02:21:25;;;;;;;27.37;15.90;;;13.50;99.90;;;;;;5076461;28;20286;-72
2022/03/30 02:23:51;;;;;;;27.50;16.60;;;13.40;99.90;;;;;;5070395;28;20207;-72
2022/03/30 02:26:17;;;;;;;21.37;14.03;;;13.30;99.90;;;;;;5067350;28;20180;-72
2022/03/30 02:28:51;;;;;;;28.23;15.17;;;13.30;99.90;;;;;;5059578;28;20422;-72
2022/03/30 02:31:18;;;;;;;25.27;14.80;;;13.30;99.90;;;;;;5068408;28;20423;-72
2022/03/30 02:33:44;;;;;;;25.60;14.00;;;13.30;99.90;;;;;;5063297;28;20793;-72
2022/03/30 02:36:09;;;;;;;27.70;14.90;;;13.20;99.90;;;;;;5049006;28;20468;-72
2022/03/30 02:38:35;;;;;;;22.57;14.00;;;13.20;99.90;;;;;;5058949;28;20197;-72
2022/03/30 02:41:03;;;;;;;26.23;14.17;;;13.20;99.90;;;;;;5046355;28;20193;-72
2022/03/30 02:43:28;;;;;;;28.93;15.40;;;13.20;99.90;;;;;;5062823;28;20195;-71
2022/03/30 02:45:54;;;;;;;25.20;16.17;;;13.10;99.90;;;;;;5057971;28;20419;-71
2022/03/30 02:48:21;;;;;;;32.87;16.10;;;13.10;99.90;;;;;;5060571;28;20265;-70
2022/03/30 02:50:49;;;;;;;28.77;16.43;;;13.10;99.90;;;;;;5064080;28;20281;-71
2022/03/30 02:53:16;;;;;;;29.87;17.07;;;13.10;99.90;;;;;;5074987;28;20415;-70
2022/03/30 02:55:42;;;;;;;30.00;17.80;;;13.20;99.90;;;;;;5061921;28;20415;-71
2022/03/30 02:58:09;;;;;;;30.00;17.40;;;13.20;99.90;;;;;;5066125;28;20415;-70
2022/03/30 03:00:35;;;;;;;27.93;17.73;;;13.10;99.90;;;;;;5067939;28;20496;-71
2022/03/30 03:03:02;;;;;;;29.63;17.73;;;13.20;99.90;;;;;;5067226;28;20417;-71
2022/03/30 03:05:31;;;;;;;28.33;18.20;;;13.20;99.90;;;;;;5062524;28;20412;-70
2022/03/30 03:07:58;;;;;;;30.30;17.40;;;13.20;99.90;;;;;;5056931;28;20410;-71
2022/03/30 03:10:25;;;;;;;32.67;17.60;;;13.20;99.90;;;;;;5064554;28;20529;-70
2022/03/30 03:12:51;;;;;;;29.90;18.03;;;13.20;99.90;;;;;;5046842;28;20996;-70
2022/03/30 03:15:17;;;;;;;30.83;18.90;;;13.20;99.90;;;;;;5052014;28;20423;-70
2022/03/30 03:17:42;;;;;;;33.93;19.70;;;13.30;99.90;;;;;;5061103;28;20191;-70
2022/03/30 03:20:08;;;;;;;30.17;19.43;;;13.30;99.90;;;;;;5052109;28;20212;-70
2022/03/30 03:22:34;;;;;;;33.47;20.13;;;13.30;99.90;;;;;;5064023;28;20271;-70
2022/03/30 03:25:00;;;;;;;37.97;19.43;;;13.30;99.90;;;;;;5066056;28;20490;-71
2022/03/30 03:27:25;;;;;;;28.23;18.20;;;13.20;99.90;;;;;;5064088;28;20165;-70
2022/03/30 03:29:51;;;;;;;34.53;19.30;;;13.10;99.90;;;;;;5047478;28;20270;-70
2022/03/30 03:32:16;;;;;;;29.93;17.80;;;13.10;99.90;;;;;;5063476;28;20219;-71
2022/03/30 03:34:42;;;;;;;33.63;18.23;;;13.00;99.90;;;;;;5051015;28;20646;-70
2022/03/30 03:37:08;;;;;;;28.33;17.43;;;13.00;99.90;;;;;;5059409;28;20168;-70
2022/03/30 03:39:34;;;;;;;28.53;15.63;;;12.90;99.90;;;;;;5047991;28;20290;-70
2022/03/30 03:41:59;;;;;;;26.23;15.80;;;12.90;99.90;;;;;;5054236;28;20503;-71
2022/03/30 03:44:25;;;;;;;25.10;14.80;;;12.90;99.90;;;;;;5062718;28;20179;-71
2022/03/30 03:46:50;;;;;;;23.90;14.47;;;12.80;99.90;;;;;;5065707;28;20173;-70
2022/03/30 03:49:16;;;;;;;23.70;14.20;;;12.70;99.90;;;;;;5049461;28;20195;-70
2022/03/30 03:51:42;;;;;;;22.97;13.80;;;12.80;99.90;;;;;;5066039;28;20225;-71
2022/03/30 03:54:07;;;;;;;19.47;13.90;;;12.70;99.90;;;;;;5068250;28;20211;-70
2022/03/30 03:56:33;;;;;;;23.60;12.60;;;12.70;99.90;;;;;;5060400;28;20334;-71
2022/03/30 03:58:58;;;;;;;18.93;12.60;;;12.60;99.90;;;;;;5066602;28;20244;-70
2022/03/30 04:01:24;;;;;;;19.60;12.13;;;12.60;99.90;;;;;;5056571;28;20204;-72
2022/03/30 04:03:49;;;;;;;18.30;12.47;;;12.60;99.90;;;;;;5063932;28;20176;-70
2022/03/30 04:06:15;;;;;;;17.33;11.90;;;12.60;99.90;;;;;;5057428;28;20185;-70
2022/03/30 04:08:40;;;;;;;19.67;12.17;;;12.60;99.90;;;;;;5060815;28;20203;-71
2022/03/30 04:11:06;;;;;;;17.07;11.70;;;12.60;99.90;;;;;;5057202;28;20204;-71
2022/03/30 04:13:32;;;;;;;19.53;12.73;;;12.60;99.90;;;;;;5046326;28;20177;-71
2022/03/30 04:15:57;;;;;;;20.90;12.67;;;12.60;99.90;;;;;;5057276;28;20430;-71
2022/03/30 04:18:23;;;;;;;21.00;11.90;;;12.50;99.90;;;;;;5067090;28;20172;-71
2022/03/30 04:20:49;;;;;;;16.63;11.50;;;12.40;99.90;;;;;;5066805;28;20344;-71
2022/03/30 04:23:14;;;;;;;18.77;11.60;;;12.30;99.90;;;;;;5073528;28;20252;-71
2022/03/30 04:25:40;;;;;;;20.77;12.63;;;12.10;99.90;;;;;;5067522;28;20173;-71
2022/03/30 04:28:06;;;;;;;18.33;11.93;;;12.00;99.90;;;;;;5063494;28;20199;-71
2022/03/30 04:30:31;;;;;;;18.77;12.70;;;11.90;99.90;;;;;;5051057;28;20185;-72
2022/03/30 04:32:57;;;;;;;24.30;13.30;;;11.80;99.90;;;;;;5052158;28;20556;-71
2022/03/30 04:35:25;;;;;;;18.47;12.13;;;11.90;99.90;;;;;;5056377;28;20200;-71
2022/03/30 04:37:55;;;;;;;22.43;12.17;;;11.60;99.90;;;;;;5069680;28;20168;-71
2022/03/30 04:40:22;;;;;;;19.93;11.50;;;11.50;99.90;;;;;;5062188;28;20463;-71
2022/03/30 04:42:49;;;;;;;19.43;12.17;;;11.50;99.90;;;;;;5050974;28;20411;-71
2022/03/30 04:45:15;;;;;;;19.63;12.43;;;11.50;99.90;;;;;;5051912;28;20420;-70
2022/03/30 04:47:41;;;;;;;18.33;12.60;;;11.50;99.90;;;;;;5067207;28;20929;-71
2022/03/30 04:50:09;;;;;;;21.83;12.80;;;11.50;99.90;;;;;;5068073;28;20454;-71
2022/03/30 04:52:35;;;;;;;20.93;13.37;;;11.40;99.90;;;;;;5067856;28;20263;-71
2022/03/30 04:55:01;;;;;;;25.40;13.13;;;11.40;99.90;;;;;;5065431;28;20434;-72
2022/03/30 04:57:27;;;;;;;21.80;14.30;;;11.40;99.90;;;;;;5050692;28;20889;-72
2022/03/30 04:59:52;;;;;;;21.13;12.93;;;11.40;99.90;;;;;;5051399;28;20486;-71
2022/03/30 05:02:18;;;;;;;22.60;14.83;;;11.40;99.90;;;;;;5050974;28;20165;-72
2022/03/30 05:04:43;;;;;;;21.73;14.03;;;11.60;99.90;;;;;;5054041;28;20185;-71
2022/03/30 05:07:09;;;;;;;20.00;12.30;;;11.30;99.90;;;;;;5051151;28;20192;-71
2022/03/30 05:09:36;;;;;;;25.10;14.33;;;11.30;99.90;;;;;;5054748;28;20213;-71
2022/03/30 05:12:03;;;;;;;24.40;13.87;;;11.20;99.90;;;;;;5049306;28;20263;-71
2022/03/30 05:14:28;;;;;;;22.80;14.40;;;11.30;99.90;;;;;;5066490;28;20437;-71
2022/03/30 05:16:54;;;;;;;22.80;13.50;;;11.30;99.90;;;;;;5069099;28;20423;-71
2022/03/30 05:19:20;;;;;;;24.10;13.87;;;11.50;99.90;;;;;;5068869;28;20227;-71
2022/03/30 05:21:45;;;;;;;24.07;13.40;;;11.50;99.90;;;;;;5063528;28;20457;-71
2022/03/30 05:24:11;;;;;;;28.97;13.97;;;11.50;99.90;;;;;;5069117;28;20208;-71
2022/03/30 05:26:36;;;;;;;23.87;13.90;;;11.50;99.90;;;;;;5067407;28;20676;-71
2022/03/30 05:29:02;;;;;;;21.40;13.87;;;11.60;99.90;;;;;;5068489;28;20819;-71
2022/03/30 05:31:28;;;;;;;28.07;14.70;;;11.60;99.90;;;;;;5063718;28;20207;-71
2022/03/30 05:33:53;;;;;;;20.70;13.40;;;11.70;99.90;;;;;;5063827;28;20179;-71
2022/03/30 05:36:19;;;;;;;24.97;14.67;;;11.70;99.90;;;;;;5067421;28;20255;-71
2022/03/30 05:38:47;;;;;;;21.70;13.87;;;11.70;99.90;;;;;;5068111;28;20296;-71
2022/03/30 05:41:13;;;;;;;24.80;13.90;;;11.70;99.90;;;;;;5059135;28;20269;-71
2022/03/30 05:43:38;;;;;;;22.70;14.13;;;11.80;99.90;;;;;;5061819;28;20886;-71
2022/03/30 05:46:04;;;;;;;20.40;13.70;;;11.90;99.90;;;;;;5057836;28;20640;-71
2022/03/30 05:48:29;;;;;;;23.67;14.70;;;11.90;99.90;;;;;;5066027;28;20425;-73
2022/03/30 05:50:55;;;;;;;23.90;15.00;;;11.90;99.90;;;;;;5071739;28;20966;-71
2022/03/30 05:53:21;;;;;;;27.40;14.17;;;11.80;99.90;;;;;;5077225;28;20665;-71
2022/03/30 05:55:47;;;;;;;23.23;14.73;;;11.70;99.90;;;;;;5064094;28;20173;-71
2022/03/30 05:58:15;;;;;;;22.30;13.97;;;11.70;99.90;;;;;;5068844;28;20176;-71
2022/03/30 06:00:42;;;;;;;23.73;15.20;;;11.80;99.90;;;;;;5052091;28;20213;-71
2022/03/30 06:03:10;;;;;;;29.20;16.57;;;11.70;99.90;;;;;;5064185;28;20411;-72
2022/03/30 06:05:35;;;;;;;23.90;15.90;;;11.70;99.90;;;;;;5068758;28;20505;-71
2022/03/30 06:08:01;;;;;;;24.77;15.73;;;11.80;99.90;;;;;;5067608;28;20572;-71
2022/03/30 06:10:27;;;;;;;25.63;15.63;;;12.00;99.90;;;;;;5046290;28;20668;-72
2022/03/30 06:12:54;;;;;;;22.93;15.43;;;11.50;99.90;;;;;;5052368;28;20170;-72
2022/03/30 06:15:19;;;;;;;25.30;16.43;;;11.30;99.90;;;;;;5054518;28;20508;-72
2022/03/30 06:17:47;;;;;;;25.17;15.33;;;11.30;99.90;;;;;;5059859;28;20509;-71
2022/03/30 06:20:13;;;;;;;25.07;15.73;;;11.30;99.90;;;;;;5018170;28;1097852;-71
2022/03/30 06:22:41;;;;;;;28.97;16.83;;;11.10;99.90;;;;;;5060402;28;20241;-72
2022/03/30 06:25:07;;;;;;;27.90;17.10;;;11.10;99.90;;;;;;5058791;28;20419;-72
2022/03/30 06:27:34;;;;;;;29.40;17.67;;;11.00;99.90;;;;;;5064866;28;20443;-71
2022/03/30 06:29:59;;;;;;;35.57;17.67;;;10.90;99.90;;;;;;5058925;28;20471;-71
2022/03/30 06:32:25;;;;;;;32.67;18.30;;;10.90;99.90;;;;;;5060288;28;20485;-71
2022/03/30 06:34:51;;;;;;;31.77;18.80;;;10.80;99.90;;;;;;5059347;28;20176;-70
2022/03/30 06:37:16;;;;;;;32.03;19.20;;;10.80;99.90;;;;;;5058940;28;20177;-70
2022/03/30 06:39:42;;;;;;;34.73;20.37;;;10.70;99.90;;;;;;5070767;28;20256;-71
2022/03/30 06:42:09;;;;;;;31.70;19.23;;;10.70;99.90;;;;;;5065026;28;20180;-73
2022/03/30 06:44:35;;;;;;;35.17;20.00;;;10.70;99.90;;;;;;5061397;28;20203;-74
2022/03/30 06:47:01;;;;;;;37.27;19.10;;;10.60;99.90;;;;;;5060770;28;20935;-73
2022/03/30 06:49:27;;;;;;;35.20;20.20;;;10.50;99.90;;;;;;5059414;28;20203;-73
2022/03/30 06:51:52;;;;;;;36.03;18.90;;;10.50;99.90;;;;;;5064090;28;20913;-71
2022/03/30 06:54:18;;;;;;;35.73;19.20;;;10.50;99.90;;;;;;5069200;28;20191;-70
2022/03/30 06:56:45;;;;;;;29.20;17.77;;;10.60;99.90;;;;;;5060661;28;20631;-72
2022/03/30 06:59:13;;;;;;;33.60;17.67;;;10.70;99.90;;;;;;5075535;28;20445;-72
2022/03/30 07:01:38;;;;;;;24.40;15.23;;;11.40;99.90;;;;;;5064142;28;20443;-71
2022/03/30 07:04:04;;;;;;;22.33;14.97;;;12.10;99.90;;;;;;5056770;28;20419;-71
2022/03/30 07:06:30;;;;;;;24.53;16.20;;;12.30;99.90;;;;;;5067458;28;20189;-71
2022/03/30 07:11:39;;;;;;;27.63;17.47;;;12.60;99.90;;;;;;5053692;28;20491;-70
2022/03/30 07:14:05;;;;;;;30.77;16.17;;;12.60;99.90;;;;;;5062402;28;20427;-72
2022/03/30 07:16:31;;;;;;;30.50;18.27;;;12.50;99.90;;;;;;5063828;28;20268;-71
2022/03/30 07:18:56;;;;;;;29.70;17.20;;;12.40;99.90;;;;;;5062810;28;20536;-71
2022/03/30 07:21:22;;;;;;;20.47;14.60;;;12.30;99.90;;;;;;5063927;28;20650;-70
2022/03/30 07:23:47;;;;;;;28.73;18.20;;;12.50;99.90;;;;;;5067410;28;20650;-71
2022/03/30 07:26:13;;;;;;;28.63;17.10;;;12.50;99.90;;;;;;5061706;28;20411;-71
2022/03/30 07:28:38;;;;;;;31.70;18.20;;;12.60;99.90;;;;;;5062663;28;20197;-70
2022/03/30 07:31:04;;;;;;;29.77;18.43;;;12.90;99.90;;;;;;5048835;28;20262;-71
2022/03/30 07:33:32;;;;;;;36.17;19.53;;;12.60;99.90;;;;;;5048553;28;20173;-71
2022/03/30 07:35:58;;;;;;;30.60;18.73;;;12.50;99.90;;;;;;5053804;28;20252;-70
2022/03/30 07:38:24;;;;;;;26.67;17.57;;;12.60;99.90;;;;;;5047674;28;20850;-71
2022/03/30 07:40:50;;;;;;;32.10;17.90;;;12.70;99.90;;;;;;5054599;28;20466;-71
2022/03/30 07:43:17;;;;;;;32.70;18.70;;;12.80;99.90;;;;;;5066455;28;20218;-71
2022/03/30 07:45:44;;;;;;;27.87;18.17;;;12.70;99.90;;;;;;5059868;28;20530;-71
2022/03/30 07:48:09;;;;;;;40.57;21.90;;;12.70;99.90;;;;;;5047663;28;20506;-70
2022/03/30 07:50:36;;;;;;;29.50;19.60;;;12.80;99.90;;;;;;5055655;28;20448;-71
2022/03/30 07:53:01;;;;;;;33.63;19.93;;;12.80;99.90;;;;;;5076884;28;20226;-71
2022/03/30 07:55:28;;;;;;;36.37;19.57;;;13.20;99.90;;;;;;5067690;28;20407;-71
2022/03/30 07:57:55;;;;;;;34.30;21.73;;;12.80;99.90;;;;;;5068347;28;20180;-71
2022/03/30 08:00:21;;;;;;;32.33;19.77;;;12.80;99.90;;;;;;5051657;28;20459;-70
2022/03/30 08:02:47;;;;;;;36.27;21.10;;;13.00;99.90;;;;;;5061145;28;20492;-71
2022/03/30 08:05:14;;;;;;;33.27;20.30;;;13.00;99.90;;;;;;5066100;28;20928;-70
2022/03/30 08:07:42;;;;;;;34.10;20.67;;;13.00;99.90;;;;;;5075337;28;20463;-71
2022/03/30 08:10:08;;;;;;;29.57;18.83;;;12.80;99.90;;;;;;5066732;28;20446;-71
2022/03/30 08:12:39;;;;;;;32.60;20.80;;;13.00;99.90;;;;;;5067543;28;20411;-70
2022/03/30 08:15:06;;;;;;;29.23;18.73;;;13.10;99.90;;;;;;5056158;28;20488;-71
2022/03/30 08:17:31;;;;;;;30.70;18.50;;;13.20;99.90;;;;;;5067613;28;20399;-71
2022/03/30 08:19:59;;;;;;;28.70;18.47;;;13.40;99.90;;;;;;5067582;28;20803;-71
2022/03/30 08:22:30;;;;;;;35.73;22.10;;;13.40;99.90;;;;;;5068162;28;20523;-72
2022/03/30 08:25:00;;;;;;;32.77;21.27;;;13.50;99.90;;;;;;5074002;28;20488;-72
2022/03/30 08:27:27;;;;;;;30.67;21.40;;;13.40;99.90;;;;;;5066822;28;20852;-71
2022/03/30 08:29:53;;;;;;;34.73;20.10;;;13.30;99.90;;;;;;5049063;28;20961;-71
2022/03/30 08:32:21;;;;;;;37.97;21.23;;;13.20;99.90;;;;;;5051291;28;20438;-72
2022/03/30 08:34:48;;;;;;;36.50;20.50;;;13.20;99.90;;;;;;5065434;28;20259;-73
2022/03/30 08:37:13;;;;;;;40.63;23.23;;;13.20;99.90;;;;;;5066228;28;20418;-72
2022/03/30 08:39:39;;;;;;;33.50;20.00;;;14.90;99.90;;;;;;5067015;28;20481;-73
2022/03/30 08:42:07;;;;;;;35.43;21.03;;;13.10;99.90;;;;;;5077125;28;20179;-72
2022/03/30 08:44:34;;;;;;;35.50;22.50;;;13.20;99.90;;;;;;5061533;28;20189;-73
2022/03/30 08:47:00;;;;;;;31.03;18.73;;;13.40;99.90;;;;;;5059875;28;20423;-72
2022/03/30 08:49:27;;;;;;;33.17;20.80;;;13.30;99.90;;;;;;5064145;28;20430;-73
2022/03/30 08:51:54;;;;;;;31.63;20.87;;;13.30;99.90;;;;;;5067811;28;20444;-72
2022/03/30 08:54:20;;;;;;;33.60;19.80;;;;;;;;;;5049222;28;20449;-72
2022/03/30 08:56:47;;;;;;;34.50;21.10;;;13.40;99.90;;;;;;5047624;28;20910;-73
2022/03/30 08:59:21;;;;;;;43.93;25.53;;;13.60;99.90;;;;;;5053018;28;20454;-72
2022/03/30 09:01:47;;;;;;;37.53;23.53;;;13.60;99.90;;;;;;5060595;28;20434;-73
2022/03/30 09:04:14;;;;;;;47.57;28.00;;;13.50;99.90;;;;;;5058531;28;20430;-73
2022/03/30 09:06:43;;;;;;;52.30;29.13;;;13.10;99.90;;;;;;5056476;28;20430;-72
2022/03/30 09:09:09;;;;;;;58.27;31.27;;;12.30;99.90;;;;;;5059895;28;20531;-73
2022/03/30 09:11:48;;;;;;;55.97;30.77;;;11.90;99.90;;;;;;5064861;28;20518;-72
2022/03/30 09:14:14;;;;;;;57.03;30.20;;;11.40;99.90;;;;;;5078499;28;20430;-73
2022/03/30 09:16:45;;;;;;;63.00;32.13;;;11.20;99.90;;;;;;5071451;28;20437;-73
2022/03/30 09:19:13;;;;;;;56.13;31.40;;;11.00;99.90;;;;;;5067512;28;20215;-73
2022/03/30 09:21:50;;;;;;;61.27;31.30;;;10.90;99.90;;;;;;5067789;28;20526;-74
2022/03/30 09:24:22;;;;;;;58.87;31.00;;;10.90;99.90;;;;;;5068027;28;20438;-73
2022/03/30 09:26:50;;;;;;;50.17;26.93;;;10.80;99.90;;;;;;5071699;28;20426;-73
2022/03/30 09:29:22;;;;;;;50.20;27.67;;;10.90;99.90;;;;;;5054395;28;20444;-73
2022/03/30 09:31:49;;;;;;;47.33;26.90;;;10.90;99.90;;;;;;5061614;28;20890;-73
2022/03/30 09:34:15;;;;;;;56.33;27.53;;;11.00;99.90;;;;;;5068888;28;20426;-73
2022/03/30 09:36:42;;;;;;;53.27;28.17;;;11.00;99.90;;;;;;5072861;28;20438;-73
2022/03/30 09:39:30;;;;;;;51.83;27.63;;;10.90;99.90;;;;;;5079614;28;20967;-72
2022/03/30 09:41:58;;;;;;;55.23;29.40;;;10.80;99.90;;;;;;5066127;28;20859;-72
2022/03/30 09:44:26;;;;;;;51.03;29.40;;;10.90;99.90;;;;;;5065650;28;20862;-73
2022/03/30 09:47:03;;;;;;;51.87;28.53;;;10.80;99.90;;;;;;5053305;28;20426;-73
2022/03/30 09:49:34;;;;;;;50.03;27.37;;;10.90;99.90;;;;;;5050799;28;20485;-73
2022/03/30 09:52:00;;;;;;;55.90;29.43;;;10.80;99.90;;;;;;5064721;28;20887;-72
2022/03/30 09:54:49;;;;;;;51.77;26.93;;;10.80;99.90;;;;;;5061370;28;20530;-72
2022/03/30 09:57:18;;;;;;;50.10;26.67;;;10.80;99.90;;;;;;5047962;28;20431;-73
2022/03/30 10:00:03;;;;;;;52.00;28.33;;;10.80;99.90;;;;;;5062680;28;20599;-72
2022/03/30 10:02:48;;;;;;;48.63;28.67;;;10.80;99.90;;;;;;5066187;28;20426;-72
2022/03/30 10:05:16;;;;;;;51.10;28.53;;;10.70;99.90;;;;;;5073308;28;20555;-72
2022/03/30 10:07:42;;;;;;;45.67;27.87;;;10.60;99.90;;;;;;5066505;28;20890;-73
2022/03/30 10:10:10;;;;;;;55.57;29.57;;;10.40;99.90;;;;;;5068128;28;20473;-72
2022/03/30 10:12:37;;;;;;;50.20;29.17;;;10.50;99.90;;;;;;5066751;28;20180;-72
2022/03/30 10:15:03;;;;;;;50.13;27.47;;;10.60;99.90;;;;;;5060952;28;20432;-72
2022/03/30 10:17:29;;;;;;;51.47;28.40;;;10.60;99.90;;;;;;5066872;28;20411;-73
2022/03/30 10:19:58;;;;;;;48.90;27.10;;;10.60;99.90;;;;;;5070651;28;20211;-70
2022/03/30 10:23:01;;;;;;;55.13;28.00;;;10.60;99.90;;;;;;5057939;28;20432;-70
2022/03/30 10:25:40;;;;;;;50.47;26.00;;;10.60;99.90;;;;;;5065653;28;20520;-72
2022/03/30 10:28:23;;;;;;;47.87;27.50;;;10.60;99.90;;;;;;5061873;28;20438;-71
2022/03/30 10:30:57;;;;;;;48.77;26.33;;;10.60;99.90;;;;;;5076393;28;20443;-72
2022/03/30 10:33:48;;;;;;;59.10;29.03;;;10.60;99.90;;;;;;5066780;28;20426;-72
2022/03/30 10:36:29;;;;;;;48.03;26.77;;;10.60;99.90;;;;;;5050567;28;20459;-71
2022/03/30 10:39:17;;;;;;;55.97;28.53;;;10.60;99.90;;;;;;5053422;28;21046;-71
2022/03/30 10:41:49;;;;;;;59.57;29.93;;;10.60;99.90;;;;;;5075916;28;20418;-71
2022/03/30 10:44:37;;;;;;;63.87;28.47;;;10.50;99.90;;;;;;5062735;28;20922;-71
2022/03/30 10:47:07;;;;;;;53.80;28.10;;;10.40;99.90;;;;;;5057955;28;20415;-70
2022/03/30 10:49:39;;;;;;;58.50;29.00;;;10.30;99.90;;;;;;5066900;28;20429;-70
2022/03/30 10:52:25;;;;;;;58.40;29.23;;;10.30;99.90;;;;;;5069991;28;20478;-71
2022/03/30 10:54:55;;;;;;;55.73;28.80;;;10.20;99.90;;;;;;5062538;28;20431;-71
2022/03/30 10:57:43;;;;;;;55.80;28.93;;;10.30;99.90;;;;;;5072033;28;20540;-70
2022/03/30 11:00:20;;;;;;;54.87;28.80;;;10.40;99.90;;;;;;5066187;28;20466;-70
2022/03/30 11:02:46;;;;;;;59.07;28.87;;;10.40;99.90;;;;;;5069372;28;20488;-70
2022/03/30 11:05:15;;;;;;;52.10;28.60;;;10.30;99.90;;;;;;5069771;28;20494;-69
2022/03/30 11:07:41;;;;;;;59.70;29.90;;;10.30;99.90;;;;;;5065506;28;20509;-70
2022/03/30 11:10:19;;;;;;;50.77;27.40;;;10.30;99.90;;;;;;5062586;28;20890;-70
2022/03/30 11:12:56;;;;;;;56.90;28.10;;;10.30;99.90;;;;;;5064915;28;20470;-71
2022/03/30 11:15:22;;;;;;;53.73;28.73;;;10.30;99.90;;;;;;5049851;28;20450;-71
2022/03/30 11:17:48;;;;;;;50.73;27.40;;;10.80;99.90;;;;;;5068785;28;20466;-70
2022/03/30 11:20:14;;;;;;;51.60;28.60;;;10.50;99.90;;;;;;5073136;28;20535;-70
2022/03/30 11:22:45;;;;;;;58.80;30.70;;;10.50;99.90;;;;;;5074096;28;20262;-71
2022/03/30 11:25:19;;;;;;;51.03;28.80;;;10.50;99.90;;;;;;5074628;28;20480;-70
2022/03/30 11:27:57;;;;;;;48.53;26.73;;;10.60;99.90;;;;;;5067930;28;20434;-70
2022/03/30 11:30:29;;;;;;;52.47;27.20;;;10.70;99.90;;;;;;5067108;28;20450;-70
2022/03/30 11:32:59;;;;;;;47.80;25.90;;;10.90;99.90;;;;;;5067283;28;20481;-70
2022/03/30 11:35:28;;;;;;;49.27;25.77;;;10.90;99.90;;;;;;5065495;28;20432;-71
2022/03/30 11:38:03;;;;;;;53.80;29.23;;;10.80;99.90;;;;;;5050202;28;20430;-70
2022/03/30 11:40:28;;;;;;;52.00;28.20;;;10.90;99.90;;;;;;5060474;28;20926;-70
2022/03/30 11:42:57;;;;;;;52.87;28.10;;;10.80;99.90;;;;;;5067022;28;20497;-70
2022/03/30 11:45:25;;;;;;;46.33;26.63;;;10.90;99.90;;;;;;5053586;28;20185;-70
2022/03/30 11:47:56;;;;;;;47.87;26.27;;;10.90;99.90;;;;;;5048799;28;20485;-70
2022/03/30 11:50:32;;;;;;;50.73;25.67;;;10.90;99.90;;;;;;5056394;28;20844;-69
2022/03/30 11:53:07;;;;;;;42.50;25.17;;;11.00;99.90;;;;;;5067657;28;20457;-70
2022/03/30 11:55:51;;;;;;;46.07;25.77;;;11.20;99.90;;;;;;5067548;28;20498;-69
2022/03/30 11:58:25;;;;;;;47.80;26.37;;;11.40;99.90;;;;;;5068735;28;20415;-70
2022/03/30 12:00:52;;;;;;;44.87;26.20;;;11.50;99.90;;;;;;5056372;28;20495;-69
2022/03/30 12:03:18;;;;;;;48.63;27.20;;;11.60;99.90;;;;;;5063604;28;20906;-70
2022/03/30 12:05:43;;;;;;;53.60;28.30;;;11.40;99.90;;;;;;5068038;28;20431;-72
2022/03/30 12:08:09;;;;;;;49.13;26.70;;;11.50;99.90;;;;;;5062944;28;20180;-71
2022/03/30 12:10:35;;;;;;;54.00;29.27;;;11.70;99.90;;;;;;5065265;28;20204;-70
2022/03/30 12:13:01;;;;;;;50.97;27.27;;;11.80;99.90;;;;;;5052132;28;20693;-70
2022/03/30 12:15:27;;;;;;;48.23;26.63;;;11.90;99.90;;;;;;5048712;28;20243;-70
2022/03/30 12:17:56;;;;;;;45.40;27.07;;;11.70;99.90;;;;;;5047570;28;20427;-70
2022/03/30 12:20:33;;;;;;;49.73;28.17;;;11.60;99.90;;;;;;5065906;28;20465;-70
2022/03/30 12:23:03;;;;;;;47.60;27.50;;;11.70;99.90;;;;;;5077996;28;20425;-70
2022/03/30 12:25:42;;;;;;;49.30;27.97;;;12.00;99.90;;;;;;5068926;28;20430;-71
2022/03/30 12:28:07;;;;;;;44.13;26.57;;;12.20;99.90;;;;;;5065233;28;20765;-70
2022/03/30 12:30:37;;;;;;;43.60;25.33;;;12.70;99.90;;;;;;5076646;28;20541;-71
2022/03/30 12:33:03;;;;;;;46.33;27.27;;;12.90;99.90;;;;;;5057042;28;20176;-70
2022/03/30 12:35:37;;;;;;;45.13;25.43;;;12.90;99.90;;;;;;5066483;28;20434;-70
2022/03/30 12:38:07;;;;;;;42.23;24.90;;;12.80;99.90;;;;;;5066924;28;20430;-70